sensor_id;sensor_type;location;lat;lon;timestamp;pressure;altitude;pressure_sealevel;temperature;humidity
28606;BME280;46498;49.968;7.754;2024-01-07T00:02:30;-18316.00;;;1.20;100.00
28606;BME280;46498;49.968;7.754;2024-01-07T00:07:32;-18318.00;;;1.27;100.00
28606;BME280;46498;49.968;7.754;2024-01-07T00:12:32;-18313.00;;;1.11;100.00
28606;BME280;46498;49.968;7.754;2024-01-07T00:17:34;-18311.00;;;1.06;100.00
28606;BME280;46498;49.968;7.754;2024-01-07T00:22:35;-18308.00;;;0.97;100.00
28606;BME280;46498;49.968;7.754;2024-01-07T00:27:35;-18308.00;;;0.95;100.00
28606;BME280;46498;49.968;7.754;2024-01-07T00:32:36;-18309.00;;;0.98;100.00
28606;BME280;46498;49.968;7.754;2024-01-07T00:37:37;-18309.00;;;1.00;100.00
28606;BME280;46498;49.968;7.754;2024-01-07T00:42:38;-18309.00;;;0.98;100.00
28606;BME280;46498;49.968;7.754;2024-01-07T00:47:39;-18309.00;;;0.99;100.00
28606;BME280;46498;49.968;7.754;2024-01-07T00:52:41;-18309.00;;;1.00;100.00
28606;BME280;46498;49.968;7.754;2024-01-07T00:57:43;-18308.00;;;0.96;100.00
28606;BME280;46498;49.968;7.754;2024-01-07T01:02:45;-18306.00;;;0.90;100.00
28606;BME280;46498;49.968;7.754;2024-01-07T01:07:47;-18307.00;;;0.93;100.00
28606;BME280;46498;49.968;7.754;2024-01-07T01:12:49;-18305.00;;;0.86;100.00
28606;BME280;46498;49.968;7.754;2024-01-07T01:17:50;-18305.00;;;0.86;100.00
28606;BME280;46498;49.968;7.754;2024-01-07T01:22:51;-18302.00;;;0.77;100.00
28606;BME280;46498;49.968;7.754;2024-01-07T01:27:52;-18304.00;;;0.85;100.00
28606;BME280;46498;49.968;7.754;2024-01-07T01:32:53;-18305.00;;;0.86;100.00
28606;BME280;46498;49.968;7.754;2024-01-07T01:37:55;-18301.00;;;0.75;100.00
28606;BME280;46498;49.968;7.754;2024-01-07T01:42:56;-18304.00;;;0.83;100.00
28606;BME280;46498;49.968;7.754;2024-01-07T01:47:57;-18305.00;;;0.86;100.00
28606;BME280;46498;49.968;7.754;2024-01-07T01:52:58;-18302.00;;;0.78;100.00
28606;BME280;46498;49.968;7.754;2024-01-07T01:58:00;-18306.00;;;0.89;100.00
28606;BME280;46498;49.968;7.754;2024-01-07T02:03:04;-18306.00;;;0.89;100.00
28606;BME280;46498;49.968;7.754;2024-01-07T02:08:06;-18302.00;;;0.77;100.00
28606;BME280;46498;49.968;7.754;2024-01-07T02:13:08;-18303.00;;;0.82;100.00
28606;BME280;46498;49.968;7.754;2024-01-07T02:18:09;-18305.00;;;0.85;100.00
28606;BME280;46498;49.968;7.754;2024-01-07T02:23:10;-18305.00;;;0.86;100.00
28606;BME280;46498;49.968;7.754;2024-01-07T02:28:11;-18304.00;;;0.85;100.00
28606;BME280;46498;49.968;7.754;2024-01-07T02:33:12;-18300.00;;;0.70;100.00
28606;BME280;46498;49.968;7.754;2024-01-07T02:38:13;-18304.00;;;0.83;100.00
28606;BME280;46498;49.968;7.754;2024-01-07T02:43:14;-18304.00;;;0.82;100.00
28606;BME280;46498;49.968;7.754;2024-01-07T02:48:15;-18301.00;;;0.73;100.00
28606;BME280;46498;49.968;7.754;2024-01-07T02:53:16;-18304.00;;;0.84;100.00
28606;BME280;46498;49.968;7.754;2024-01-07T02:58:17;-18300.00;;;0.71;100.00
28606;BME280;46498;49.968;7.754;2024-01-07T03:03:18;-18304.00;;;0.83;100.00
28606;BME280;46498;49.968;7.754;2024-01-07T03:08:19;-18300.00;;;0.71;100.00
28606;BME280;46498;49.968;7.754;2024-01-07T03:13:20;-18303.00;;;0.80;100.00
28606;BME280;46498;49.968;7.754;2024-01-07T03:18:21;-18299.00;;;0.68;100.00
28606;BME280;46498;49.968;7.754;2024-01-07T03:23:22;-18300.00;;;0.70;100.00
28606;BME280;46498;49.968;7.754;2024-01-07T03:28:23;-18301.00;;;0.75;100.00
28606;BME280;46498;49.968;7.754;2024-01-07T03:33:25;-18302.00;;;0.76;100.00
28606;BME280;46498;49.968;7.754;2024-01-07T03:38:26;-18299.00;;;0.68;100.00
28606;BME280;46498;49.968;7.754;2024-01-07T03:43:27;-18301.00;;;0.73;100.00
28606;BME280;46498;49.968;7.754;2024-01-07T03:48:28;-18305.00;;;0.85;100.00
28606;BME280;46498;49.968;7.754;2024-01-07T03:53:29;-18305.00;;;0.85;100.00
28606;BME280;46498;49.968;7.754;2024-01-07T03:58:30;-18303.00;;;0.81;100.00
28606;BME280;46498;49.968;7.754;2024-01-07T04:03:30;-18307.00;;;0.92;100.00
28606;BME280;46498;49.968;7.754;2024-01-07T04:08:31;-18304.00;;;0.84;100.00
28606;BME280;46498;49.968;7.754;2024-01-07T04:13:32;-18303.00;;;0.79;100.00
28606;BME280;46498;49.968;7.754;2024-01-07T04:18:33;-18301.00;;;0.74;100.00
28606;BME280;46498;49.968;7.754;2024-01-07T04:23:34;-18300.00;;;0.71;100.00
28606;BME280;46498;49.968;7.754;2024-01-07T04:28:40;-18299.00;;;0.69;100.00
28606;BME280;46498;49.968;7.754;2024-01-07T04:33:42;-18302.00;;;0.76;100.00
28606;BME280;46498;49.968;7.754;2024-01-07T04:38:43;-18302.00;;;0.76;100.00
28606;BME280;46498;49.968;7.754;2024-01-07T04:43:44;-18302.00;;;0.78;100.00
28606;BME280;46498;49.968;7.754;2024-01-07T04:48:45;-18300.00;;;0.71;100.00
28606;BME280;46498;49.968;7.754;2024-01-07T04:53:46;-18302.00;;;0.78;100.00
28606;BME280;46498;49.968;7.754;2024-01-07T04:58:47;-18303.00;;;0.79;100.00
28606;BME280;46498;49.968;7.754;2024-01-07T05:03:48;-18304.00;;;0.82;100.00
28606;BME280;46498;49.968;7.754;2024-01-07T05:08:49;-18303.00;;;0.81;100.00
28606;BME280;46498;49.968;7.754;2024-01-07T05:13:50;-18305.00;;;0.85;100.00
28606;BME280;46498;49.968;7.754;2024-01-07T05:18:55;-18305.00;;;0.85;100.00
28606;BME280;46498;49.968;7.754;2024-01-07T05:23:56;-18305.00;;;0.87;100.00
28606;BME280;46498;49.968;7.754;2024-01-07T05:28:57;-18307.00;;;0.92;100.00
28606;BME280;46498;49.968;7.754;2024-01-07T05:33:58;-18307.00;;;0.91;100.00
28606;BME280;46498;49.968;7.754;2024-01-07T05:39:00;-18307.00;;;0.91;100.00
28606;BME280;46498;49.968;7.754;2024-01-07T05:44:01;-18305.00;;;0.87;100.00
28606;BME280;46498;49.968;7.754;2024-01-07T05:49:02;-18306.00;;;0.90;100.00
28606;BME280;46498;49.968;7.754;2024-01-07T05:54:03;-18304.00;;;0.82;100.00
28606;BME280;46498;49.968;7.754;2024-01-07T05:59:04;-18307.00;;;0.93;100.00
28606;BME280;46498;49.968;7.754;2024-01-07T06:04:05;-18304.00;;;0.83;100.00
28606;BME280;46498;49.968;7.754;2024-01-07T06:09:06;-18305.00;;;0.87;100.00
28606;BME280;46498;49.968;7.754;2024-01-07T06:14:07;-18307.00;;;0.92;100.00
28606;BME280;46498;49.968;7.754;2024-01-07T06:19:08;-18303.00;;;0.80;100.00
28606;BME280;46498;49.968;7.754;2024-01-07T06:24:10;-18304.00;;;0.82;100.00
28606;BME280;46498;49.968;7.754;2024-01-07T06:29:11;-18304.00;;;0.84;100.00
28606;BME280;46498;49.968;7.754;2024-01-07T06:34:12;-18304.00;;;0.83;100.00
28606;BME280;46498;49.968;7.754;2024-01-07T06:39:17;-18307.00;;;0.93;100.00
28606;BME280;46498;49.968;7.754;2024-01-07T06:44:18;-18305.00;;;0.87;100.00
28606;BME280;46498;49.968;7.754;2024-01-07T06:49:19;-18308.00;;;0.97;100.00
28606;BME280;46498;49.968;7.754;2024-01-07T06:54:20;-18308.00;;;0.96;100.00
28606;BME280;46498;49.968;7.754;2024-01-07T06:59:21;-18307.00;;;0.91;100.00
28606;BME280;46498;49.968;7.754;2024-01-07T07:04:22;-18306.00;;;0.88;100.00
28606;BME280;46498;49.968;7.754;2024-01-07T07:09:24;-18305.00;;;0.87;100.00
28606;BME280;46498;49.968;7.754;2024-01-07T07:14:24;-18306.00;;;0.89;100.00
28606;BME280;46498;49.968;7.754;2024-01-07T07:19:25;-18307.00;;;0.92;100.00
28606;BME280;46498;49.968;7.754;2024-01-07T07:24:26;-18309.00;;;1.00;100.00
28606;BME280;46498;49.968;7.754;2024-01-07T07:29:27;-18309.00;;;0.99;100.00
28606;BME280;46498;49.968;7.754;2024-01-07T07:34:28;-18307.00;;;0.93;100.00
28606;BME280;46498;49.968;7.754;2024-01-07T07:39:29;-18308.00;;;0.97;100.00
28606;BME280;46498;49.968;7.754;2024-01-07T07:44:30;-18308.00;;;0.95;100.00
28606;BME280;46498;49.968;7.754;2024-01-07T07:49:31;-18310.00;;;1.01;100.00
28606;BME280;46498;49.968;7.754;2024-01-07T07:54:32;-18310.00;;;1.01;100.00
28606;BME280;46498;49.968;7.754;2024-01-07T07:59:36;-18314.00;;;1.16;100.00
28606;BME280;46498;49.968;7.754;2024-01-07T08:04:37;-18316.00;;;1.22;100.00
28606;BME280;46498;49.968;7.754;2024-01-07T08:09:42;-18314.00;;;1.14;100.00
28606;BME280;46498;49.968;7.754;2024-01-07T08:14:43;-18313.00;;;1.10;100.00
28606;BME280;46498;49.968;7.754;2024-01-07T08:19:43;-18313.00;;;1.12;100.00
28606;BME280;46498;49.968;7.754;2024-01-07T08:24:44;-18316.00;;;1.22;100.00
28606;BME280;46498;49.968;7.754;2024-01-07T08:29:45;-18316.00;;;1.20;100.00
28606;BME280;46498;49.968;7.754;2024-01-07T08:34:47;-18315.00;;;1.18;100.00
28606;BME280;46498;49.968;7.754;2024-01-07T08:39:51;-18314.00;;;1.16;100.00
28606;BME280;46498;49.968;7.754;2024-01-07T08:44:52;-18317.00;;;1.25;100.00
28606;BME280;46498;49.968;7.754;2024-01-07T08:49:53;-18317.00;;;1.25;100.00
28606;BME280;46498;49.968;7.754;2024-01-07T08:54:54;-18315.00;;;1.17;100.00
28606;BME280;46498;49.968;7.754;2024-01-07T08:59:55;-18313.00;;;1.12;100.00
28606;BME280;46498;49.968;7.754;2024-01-07T09:04:56;-18315.00;;;1.19;100.00
28606;BME280;46498;49.968;7.754;2024-01-07T09:09:58;-18316.00;;;1.21;100.00
28606;BME280;46498;49.968;7.754;2024-01-07T09:15:01;-18319.00;;;1.31;100.00
28606;BME280;46498;49.968;7.754;2024-01-07T09:20:03;-18316.00;;;1.22;100.00
28606;BME280;46498;49.968;7.754;2024-01-07T09:25:08;-18320.00;;;1.32;100.00
28606;BME280;46498;49.968;7.754;2024-01-07T09:30:10;-18320.00;;;1.32;100.00
28606;BME280;46498;49.968;7.754;2024-01-07T09:35:15;-18318.00;;;1.28;100.00
28606;BME280;46498;49.968;7.754;2024-01-07T09:40:19;-18321.00;;;1.37;100.00
28606;BME280;46498;49.968;7.754;2024-01-07T09:45:21;-18320.00;;;1.34;100.00
28606;BME280;46498;49.968;7.754;2024-01-07T09:50:24;-18321.00;;;1.37;100.00
28606;BME280;46498;49.968;7.754;2024-01-07T09:55:33;-18325.00;;;1.50;100.00
28606;BME280;46498;49.968;7.754;2024-01-07T10:00:36;-18324.00;;;1.47;100.00
28606;BME280;46498;49.968;7.754;2024-01-07T10:05:37;-18322.00;;;1.39;100.00
28606;BME280;46498;49.968;7.754;2024-01-07T10:10:38;-18319.00;;;1.31;100.00
28606;BME280;46498;49.968;7.754;2024-01-07T10:15:41;-18316.00;;;1.21;100.00
28606;BME280;46498;49.968;7.754;2024-01-07T10:20:42;-18316.00;;;1.20;100.00
28606;BME280;46498;49.968;7.754;2024-01-07T10:25:44;-18317.00;;;1.25;100.00
28606;BME280;46498;49.968;7.754;2024-01-07T10:30:49;-18312.00;;;1.10;100.00
28606;BME280;46498;49.968;7.754;2024-01-07T10:36:01;-18312.00;;;1.09;100.00
28606;BME280;46498;49.968;7.754;2024-01-07T10:41:04;-18310.00;;;1.02;100.00
28606;BME280;46498;49.968;7.754;2024-01-07T10:46:09;-18310.00;;;1.02;100.00
28606;BME280;46498;49.968;7.754;2024-01-07T10:51:12;-18308.00;;;0.97;100.00
28606;BME280;46498;49.968;7.754;2024-01-07T10:56:17;-18305.00;;;0.86;100.00
28606;BME280;46498;49.968;7.754;2024-01-07T11:01:20;-18307.00;;;0.94;100.00
28606;BME280;46498;49.968;7.754;2024-01-07T11:08:03;-18309.00;;;1.00;100.00
28606;BME280;46498;49.968;7.754;2024-01-07T11:13:05;-18307.00;;;0.93;100.00
28606;BME280;46498;49.968;7.754;2024-01-07T11:18:07;-18309.00;;;1.00;100.00
28606;BME280;46498;49.968;7.754;2024-01-07T11:23:31;-18310.00;;;1.03;100.00
28606;BME280;46498;49.968;7.754;2024-01-07T11:28:54;-18310.00;;;1.01;100.00
28606;BME280;46498;49.968;7.754;2024-01-07T11:33:59;-18306.00;;;0.90;100.00
28606;BME280;46498;49.968;7.754;2024-01-07T11:39:00;-18307.00;;;0.93;100.00
28606;BME280;46498;49.968;7.754;2024-01-07T11:44:03;-18304.00;;;0.82;100.00
28606;BME280;46498;49.968;7.754;2024-01-07T11:49:08;-18305.00;;;0.87;100.00
28606;BME280;46498;49.968;7.754;2024-01-07T11:54:10;-18305.00;;;0.87;100.00
28606;BME280;46498;49.968;7.754;2024-01-07T11:59:11;-18308.00;;;0.95;100.00
28606;BME280;46498;49.968;7.754;2024-01-07T12:04:12;-18305.00;;;0.88;100.00
28606;BME280;46498;49.968;7.754;2024-01-07T12:09:13;-18303.00;;;0.81;100.00
28606;BME280;46498;49.968;7.754;2024-01-07T12:14:15;-18304.00;;;0.84;100.00
28606;BME280;46498;49.968;7.754;2024-01-07T12:19:16;-18309.00;;;1.00;100.00
28606;BME280;46498;49.968;7.754;2024-01-07T12:24:17;-18300.00;;;0.72;100.00
28606;BME280;46498;49.968;7.754;2024-01-07T12:29:20;-18301.00;;;0.75;100.00
28606;BME280;46498;49.968;7.754;2024-01-07T12:34:22;-18301.00;;;0.73;100.00
28606;BME280;46498;49.968;7.754;2024-01-07T12:39:25;-18303.00;;;0.81;100.00
28606;BME280;46498;49.968;7.754;2024-01-07T12:44:29;-18300.00;;;0.70;100.00
28606;BME280;46498;49.968;7.754;2024-01-07T12:49:30;-18297.00;;;0.62;100.00
28606;BME280;46498;49.968;7.754;2024-01-07T12:54:31;-18298.00;;;0.65;100.00
28606;BME280;46498;49.968;7.754;2024-01-07T12:59:32;-18296.00;;;0.60;100.00
28606;BME280;46498;49.968;7.754;2024-01-07T13:04:33;-18294.00;;;0.51;100.00
28606;BME280;46498;49.968;7.754;2024-01-07T13:09:34;-18297.00;;;0.63;100.00
28606;BME280;46498;49.968;7.754;2024-01-07T13:14:35;-18295.00;;;0.54;100.00
28606;BME280;46498;49.968;7.754;2024-01-07T13:19:35;-18292.00;;;0.45;100.00
28606;BME280;46498;49.968;7.754;2024-01-07T13:24:37;-18290.00;;;0.40;100.00
28606;BME280;46498;49.968;7.754;2024-01-07T13:29:38;-18289.00;;;0.36;100.00
28606;BME280;46498;49.968;7.754;2024-01-07T13:34:39;-18286.00;;;0.26;100.00
28606;BME280;46498;49.968;7.754;2024-01-07T13:39:40;-18287.00;;;0.32;100.00
28606;BME280;46498;49.968;7.754;2024-01-07T13:44:42;-18285.00;;;0.23;100.00
28606;BME280;46498;49.968;7.754;2024-01-07T13:49:47;-18282.00;;;0.16;100.00
28606;BME280;46498;49.968;7.754;2024-01-07T13:54:48;-18283.00;;;0.17;100.00
28606;BME280;46498;49.968;7.754;2024-01-07T13:59:49;-18279.00;;;0.07;100.00
28606;BME280;46498;49.968;7.754;2024-01-07T14:04:50;-18281.00;;;0.12;100.00
28606;BME280;46498;49.968;7.754;2024-01-07T14:09:54;-18276.00;;;-0.03;100.00
28606;BME280;46498;49.968;7.754;2024-01-07T14:14:57;-18275.00;;;-0.07;100.00
28606;BME280;46498;49.968;7.754;2024-01-07T14:19:59;-18273.00;;;-0.13;100.00
28606;BME280;46498;49.968;7.754;2024-01-07T14:25:01;-18273.00;;;-0.13;100.00
28606;BME280;46498;49.968;7.754;2024-01-07T14:30:02;-18275.00;;;-0.07;100.00
28606;BME280;46498;49.968;7.754;2024-01-07T14:35:04;-18272.00;;;-0.16;100.00
28606;BME280;46498;49.968;7.754;2024-01-07T14:40:07;-18273.00;;;-0.14;100.00
28606;BME280;46498;49.968;7.754;2024-01-07T14:45:08;-18276.00;;;-0.05;100.00
28606;BME280;46498;49.968;7.754;2024-01-07T14:50:09;-18283.00;;;0.18;100.00
28606;BME280;46498;49.968;7.754;2024-01-07T14:55:10;-18266.00;;;-0.36;100.00
28606;BME280;46498;49.968;7.754;2024-01-07T15:00:12;-18261.00;;;-0.50;100.00
28606;BME280;46498;49.968;7.754;2024-01-07T15:05:14;-18266.00;;;-0.36;100.00
28606;BME280;46498;49.968;7.754;2024-01-07T15:10:16;-18262.00;;;-0.47;100.00
28606;BME280;46498;49.968;7.754;2024-01-07T15:15:19;-18256.00;;;-0.66;100.00
28606;BME280;46498;49.968;7.754;2024-01-07T15:20:21;-18255.00;;;-0.69;100.00
28606;BME280;46498;49.968;7.754;2024-01-07T15:25:22;-18253.00;;;-0.76;100.00
28606;BME280;46498;49.968;7.754;2024-01-07T15:30:23;-18250.00;;;-0.87;100.00
28606;BME280;46498;49.968;7.754;2024-01-07T15:35:24;-18246.00;;;-0.99;100.00
28606;BME280;46498;49.968;7.754;2024-01-07T15:40:25;-18244.00;;;-1.05;100.00
28606;BME280;46498;49.968;7.754;2024-01-07T15:45:27;-18240.00;;;-1.16;100.00
28606;BME280;46498;49.968;7.754;2024-01-07T15:50:31;-18236.00;;;-1.29;100.00
28606;BME280;46498;49.968;7.754;2024-01-07T15:55:32;-18232.00;;;-1.43;100.00
28606;BME280;46498;49.968;7.754;2024-01-07T16:00:33;-18233.00;;;-1.40;100.00
28606;BME280;46498;49.968;7.754;2024-01-07T16:05:34;-18233.00;;;-1.38;100.00
28606;BME280;46498;49.968;7.754;2024-01-07T16:10:35;-18222.00;;;-1.74;100.00
28606;BME280;46498;49.968;7.754;2024-01-07T16:15:36;-18223.00;;;-1.70;100.00
28606;BME280;46498;49.968;7.754;2024-01-07T16:20:37;-18216.00;;;-1.91;100.00
28606;BME280;46498;49.968;7.754;2024-01-07T16:25:39;-18211.00;;;-2.07;100.00
28606;BME280;46498;49.968;7.754;2024-01-07T16:30:39;-18214.00;;;-2.00;100.00
28606;BME280;46498;49.968;7.754;2024-01-07T16:35:41;-18208.00;;;-2.17;100.00
28606;BME280;46498;49.968;7.754;2024-01-07T16:40:42;-18208.00;;;-2.16;100.00
28606;BME280;46498;49.968;7.754;2024-01-07T16:45:44;-18210.00;;;-2.10;100.00
28606;BME280;46498;49.968;7.754;2024-01-07T16:50:45;-18211.00;;;-2.07;100.00
28606;BME280;46498;49.968;7.754;2024-01-07T16:55:51;-18214.00;;;-1.99;100.00
28606;BME280;46498;49.968;7.754;2024-01-07T17:00:52;-18209.00;;;-2.15;100.00
28606;BME280;46498;49.968;7.754;2024-01-07T17:05:57;-18203.00;;;-2.32;100.00
28606;BME280;46498;49.968;7.754;2024-01-07T17:10:59;-18203.00;;;-2.33;100.00
28606;BME280;46498;49.968;7.754;2024-01-07T17:16:01;-18201.00;;;-2.39;100.00
28606;BME280;46498;49.968;7.754;2024-01-07T17:21:01;-18197.00;;;-2.50;100.00
28606;BME280;46498;49.968;7.754;2024-01-07T17:26:03;-18199.00;;;-2.44;100.00
28606;BME280;46498;49.968;7.754;2024-01-07T17:31:04;-18198.00;;;-2.48;100.00
28606;BME280;46498;49.968;7.754;2024-01-07T17:36:05;-18197.00;;;-2.52;100.00
28606;BME280;46498;49.968;7.754;2024-01-07T17:41:06;-18195.00;;;-2.57;100.00
28606;BME280;46498;49.968;7.754;2024-01-07T17:46:08;-18188.00;;;-2.81;100.00
28606;BME280;46498;49.968;7.754;2024-01-07T17:51:10;-18189.00;;;-2.78;100.00
28606;BME280;46498;49.968;7.754;2024-01-07T17:56:18;-18190.00;;;-2.73;100.00
28606;BME280;46498;49.968;7.754;2024-01-07T18:01:20;-18189.00;;;-2.78;100.00
28606;BME280;46498;49.968;7.754;2024-01-07T18:06:21;-18188.00;;;-2.79;100.00
28606;BME280;46498;49.968;7.754;2024-01-07T18:11:22;-18189.00;;;-2.78;100.00
28606;BME280;46498;49.968;7.754;2024-01-07T18:16:24;-18184.00;;;-2.92;100.00
28606;BME280;46498;49.968;7.754;2024-01-07T18:21:24;-18179.00;;;-3.08;100.00
28606;BME280;46498;49.968;7.754;2024-01-07T18:26:26;-18175.00;;;-3.21;100.00
28606;BME280;46498;49.968;7.754;2024-01-07T18:31:28;-18174.00;;;-3.24;100.00
28606;BME280;46498;49.968;7.754;2024-01-07T18:36:28;-18176.00;;;-3.16;100.00
28606;BME280;46498;49.968;7.754;2024-01-07T18:41:29;-18177.00;;;-3.13;100.00
28606;BME280;46498;49.968;7.754;2024-01-07T18:46:31;-18171.00;;;-3.32;100.00
28606;BME280;46498;49.968;7.754;2024-01-07T18:51:32;-18173.00;;;-3.27;100.00
28606;BME280;46498;49.968;7.754;2024-01-07T18:56:33;-18169.00;;;-3.41;100.00
28606;BME280;46498;49.968;7.754;2024-01-07T19:01:34;-18170.00;;;-3.37;100.00
28606;BME280;46498;49.968;7.754;2024-01-07T19:06:35;-18168.00;;;-3.43;100.00
28606;BME280;46498;49.968;7.754;2024-01-07T19:11:42;-18169.00;;;-3.40;100.00
28606;BME280;46498;49.968;7.754;2024-01-07T19:16:44;-18169.00;;;-3.40;100.00
28606;BME280;46498;49.968;7.754;2024-01-07T19:21:45;-18163.00;;;-3.58;100.00
28606;BME280;46498;49.968;7.754;2024-01-07T19:26:46;-18164.00;;;-3.56;100.00
28606;BME280;46498;49.968;7.754;2024-01-07T19:31:47;-18167.00;;;-3.46;100.00
28606;BME280;46498;49.968;7.754;2024-01-07T19:36:48;-18167.00;;;-3.45;100.00
28606;BME280;46498;49.968;7.754;2024-01-07T19:41:48;-18166.00;;;-3.47;100.00
28606;BME280;46498;49.968;7.754;2024-01-07T19:46:50;-18166.00;;;-3.48;100.00
28606;BME280;46498;49.968;7.754;2024-01-07T19:51:51;-18168.00;;;-3.44;100.00
28606;BME280;46498;49.968;7.754;2024-01-07T19:56:52;-18173.00;;;-3.26;100.00
28606;BME280;46498;49.968;7.754;2024-01-07T20:01:53;-18171.00;;;-3.34;100.00
28606;BME280;46498;49.968;7.754;2024-01-07T20:06:56;-18172.00;;;-3.30;100.00
28606;BME280;46498;49.968;7.754;2024-01-07T20:11:58;-18171.00;;;-3.32;100.00
28606;BME280;46498;49.968;7.754;2024-01-07T20:17:01;-18169.00;;;-3.41;100.00
28606;BME280;46498;49.968;7.754;2024-01-07T20:22:02;-18167.00;;;-3.46;100.00
28606;BME280;46498;49.968;7.754;2024-01-07T20:27:03;-18164.00;;;-3.56;100.00
28606;BME280;46498;49.968;7.754;2024-01-07T20:32:05;-18169.00;;;-3.39;100.00
28606;BME280;46498;49.968;7.754;2024-01-07T20:37:06;-18175.00;;;-3.22;100.00
28606;BME280;46498;49.968;7.754;2024-01-07T20:42:07;-18170.00;;;-3.36;100.00
28606;BME280;46498;49.968;7.754;2024-01-07T20:47:23;-18174.00;;;-3.24;100.00
28606;BME280;46498;49.968;7.754;2024-01-07T20:52:24;-18173.00;;;-3.26;100.00
28606;BME280;46498;49.968;7.754;2024-01-07T20:57:25;-18172.00;;;-3.29;100.00
28606;BME280;46498;49.968;7.754;2024-01-07T21:02:26;-18172.00;;;-3.29;100.00
28606;BME280;46498;49.968;7.754;2024-01-07T21:07:28;-18175.00;;;-3.22;100.00
28606;BME280;46498;49.968;7.754;2024-01-07T21:12:33;-18173.00;;;-3.26;100.00
28606;BME280;46498;49.968;7.754;2024-01-07T21:17:34;-18181.00;;;-3.03;100.00
28606;BME280;46498;49.968;7.754;2024-01-07T21:22:39;-18174.00;;;-3.24;100.00
28606;BME280;46498;49.968;7.754;2024-01-07T21:27:40;-18172.00;;;-3.29;100.00
28606;BME280;46498;49.968;7.754;2024-01-07T21:32:41;-18191.00;;;-2.70;100.00
28606;BME280;46498;49.968;7.754;2024-01-07T21:37:42;-18192.00;;;-2.67;100.00
28606;BME280;46498;49.968;7.754;2024-01-07T21:42:44;-18180.00;;;-3.05;100.00
28606;BME280;46498;49.968;7.754;2024-01-07T21:47:46;-18177.00;;;-3.15;100.00
28606;BME280;46498;49.968;7.754;2024-01-07T21:52:55;-18176.00;;;-3.17;100.00
28606;BME280;46498;49.968;7.754;2024-01-07T21:57:59;-18180.00;;;-3.05;100.00
28606;BME280;46498;49.968;7.754;2024-01-07T22:03:00;-18177.00;;;-3.16;100.00
28606;BME280;46498;49.968;7.754;2024-01-07T22:08:01;-18173.00;;;-3.25;100.00
28606;BME280;46498;49.968;7.754;2024-01-07T22:13:03;-18173.00;;;-3.25;100.00
28606;BME280;46498;49.968;7.754;2024-01-07T22:18:08;-18175.00;;;-3.21;100.00
28606;BME280;46498;49.968;7.754;2024-01-07T22:23:10;-18177.00;;;-3.14;100.00
28606;BME280;46498;49.968;7.754;2024-01-07T22:28:11;-18176.00;;;-3.19;100.00
28606;BME280;46498;49.968;7.754;2024-01-07T22:33:12;-18176.00;;;-3.18;100.00
28606;BME280;46498;49.968;7.754;2024-01-07T22:38:14;-18175.00;;;-3.19;100.00
28606;BME280;46498;49.968;7.754;2024-01-07T22:43:15;-18174.00;;;-3.22;100.00
28606;BME280;46498;49.968;7.754;2024-01-07T22:48:18;-18176.00;;;-3.17;100.00
28606;BME280;46498;49.968;7.754;2024-01-07T22:53:20;-18177.00;;;-3.13;100.00
28606;BME280;46498;49.968;7.754;2024-01-07T22:58:21;-18179.00;;;-3.07;100.00
28606;BME280;46498;49.968;7.754;2024-01-07T23:03:21;-18179.00;;;-3.08;100.00
28606;BME280;46498;49.968;7.754;2024-01-07T23:08:23;-18178.00;;;-3.12;100.00
28606;BME280;46498;49.968;7.754;2024-01-07T23:13:24;-18179.00;;;-3.09;100.00
28606;BME280;46498;49.968;7.754;2024-01-07T23:18:25;-18179.00;;;-3.07;100.00
28606;BME280;46498;49.968;7.754;2024-01-07T23:23:26;-18172.00;;;-3.30;100.00
28606;BME280;46498;49.968;7.754;2024-01-07T23:28:27;-18173.00;;;-3.25;100.00
28606;BME280;46498;49.968;7.754;2024-01-07T23:33:28;-18178.00;;;-3.10;100.00
28606;BME280;46498;49.968;7.754;2024-01-07T23:38:30;-18179.00;;;-3.09;100.00
28606;BME280;46498;49.968;7.754;2024-01-07T23:43:31;-18176.00;;;-3.17;100.00
28606;BME280;46498;49.968;7.754;2024-01-07T23:48:32;-18179.00;;;-3.07;100.00
28606;BME280;46498;49.968;7.754;2024-01-07T23:53:33;-18178.00;;;-3.10;100.00
28606;BME280;46498;49.968;7.754;2024-01-07T23:58:35;-18182.00;;;-2.99;100.00
